sensor_id;sensor_type;location;lat;lon;timestamp;P1;durP1;ratioP1;P2;durP2;ratioP2
75537;SDS011;64121;48.666;8.114;2023-05-07T00:01:20;3.05;;;2.08;;
75537;SDS011;64121;48.666;8.114;2023-05-07T00:03:46;3.67;;;1.92;;
75537;SDS011;64121;48.666;8.114;2023-05-07T00:06:11;2.40;;;1.90;;
75537;SDS011;64121;48.666;8.114;2023-05-07T00:08:38;2.70;;;2.00;;
75537;SDS011;64121;48.666;8.114;2023-05-07T00:11:03;3.10;;;2.10;;
75537;SDS011;64121;48.666;8.114;2023-05-07T00:13:28;2.53;;;1.85;;
75537;SDS011;64121;48.666;8.114;2023-05-07T00:15:54;2.25;;;1.85;;
75537;SDS011;64121;48.666;8.114;2023-05-07T00:18:19;2.65;;;1.80;;
75537;SDS011;64121;48.666;8.114;2023-05-07T00:20:44;2.83;;;1.90;;
75537;SDS011;64121;48.666;8.114;2023-05-07T00:23:10;3.13;;;1.80;;
75537;SDS011;64121;48.666;8.114;2023-05-07T00:25:36;3.10;;;2.42;;
75537;SDS011;64121;48.666;8.114;2023-05-07T00:28:02;3.42;;;2.30;;
75537;SDS011;64121;48.666;8.114;2023-05-07T00:30:27;5.10;;;2.70;;
75537;SDS011;64121;48.666;8.114;2023-05-07T00:32:53;4.28;;;2.50;;
75537;SDS011;64121;48.666;8.114;2023-05-07T00:35:18;3.50;;;2.50;;
75537;SDS011;64121;48.666;8.114;2023-05-07T00:37:44;3.10;;;2.40;;
75537;SDS011;64121;48.666;8.114;2023-05-07T00:40:09;5.43;;;2.72;;
75537;SDS011;64121;48.666;8.114;2023-05-07T00:42:36;3.10;;;2.30;;
75537;SDS011;64121;48.666;8.114;2023-05-07T00:45:02;2.50;;;2.13;;
75537;SDS011;64121;48.666;8.114;2023-05-07T00:47:27;5.93;;;2.45;;
75537;SDS011;64121;48.666;8.114;2023-05-07T00:49:53;3.83;;;2.35;;
75537;SDS011;64121;48.666;8.114;2023-05-07T00:52:18;2.50;;;2.17;;
75537;SDS011;64121;48.666;8.114;2023-05-07T00:54:46;3.78;;;2.67;;
75537;SDS011;64121;48.666;8.114;2023-05-07T00:57:12;3.20;;;2.40;;
75537;SDS011;64121;48.666;8.114;2023-05-07T00:59:39;4.30;;;2.80;;
75537;SDS011;64121;48.666;8.114;2023-05-07T01:02:04;5.72;;;2.35;;
75537;SDS011;64121;48.666;8.114;2023-05-07T01:04:29;3.05;;;2.10;;
75537;SDS011;64121;48.666;8.114;2023-05-07T01:06:55;4.65;;;2.47;;
75537;SDS011;64121;48.666;8.114;2023-05-07T01:09:22;3.15;;;2.38;;
75537;SDS011;64121;48.666;8.114;2023-05-07T01:11:49;3.97;;;2.35;;
75537;SDS011;64121;48.666;8.114;2023-05-07T01:14:15;2.80;;;2.40;;
75537;SDS011;64121;48.666;8.114;2023-05-07T01:16:42;2.53;;;2.33;;
75537;SDS011;64121;48.666;8.114;2023-05-07T01:19:07;3.85;;;2.50;;
75537;SDS011;64121;48.666;8.114;2023-05-07T01:21:33;3.03;;;2.08;;
75537;SDS011;64121;48.666;8.114;2023-05-07T01:24:01;2.55;;;2.28;;
75537;SDS011;64121;48.666;8.114;2023-05-07T01:26:26;3.78;;;2.28;;
75537;SDS011;64121;48.666;8.114;2023-05-07T01:28:52;3.95;;;2.38;;
75537;SDS011;64121;48.666;8.114;2023-05-07T01:31:17;5.03;;;2.40;;
75537;SDS011;64121;48.666;8.114;2023-05-07T01:33:42;2.83;;;2.17;;
75537;SDS011;64121;48.666;8.114;2023-05-07T01:36:09;2.75;;;2.20;;
75537;SDS011;64121;48.666;8.114;2023-05-07T01:38:36;3.33;;;2.28;;
75537;SDS011;64121;48.666;8.114;2023-05-07T01:41:05;3.92;;;2.20;;
75537;SDS011;64121;48.666;8.114;2023-05-07T01:43:31;4.57;;;2.70;;
75537;SDS011;64121;48.666;8.114;2023-05-07T01:45:57;2.90;;;2.08;;
75537;SDS011;64121;48.666;8.114;2023-05-07T01:48:23;3.13;;;2.47;;
75537;SDS011;64121;48.666;8.114;2023-05-07T01:50:49;4.20;;;2.92;;
75537;SDS011;64121;48.666;8.114;2023-05-07T01:53:15;5.15;;;2.90;;
75537;SDS011;64121;48.666;8.114;2023-05-07T01:55:41;3.75;;;2.70;;
75537;SDS011;64121;48.666;8.114;2023-05-07T01:58:07;4.03;;;3.30;;
75537;SDS011;64121;48.666;8.114;2023-05-07T02:00:34;4.82;;;2.67;;
75537;SDS011;64121;48.666;8.114;2023-05-07T02:02:59;4.80;;;3.05;;
75537;SDS011;64121;48.666;8.114;2023-05-07T02:05:24;3.95;;;2.40;;
75537;SDS011;64121;48.666;8.114;2023-05-07T02:07:50;4.05;;;2.55;;
75537;SDS011;64121;48.666;8.114;2023-05-07T02:10:15;3.40;;;2.33;;
75537;SDS011;64121;48.666;8.114;2023-05-07T02:12:40;3.72;;;2.40;;
75537;SDS011;64121;48.666;8.114;2023-05-07T02:15:07;3.05;;;2.55;;
75537;SDS011;64121;48.666;8.114;2023-05-07T02:17:33;3.72;;;2.38;;
75537;SDS011;64121;48.666;8.114;2023-05-07T02:19:59;3.60;;;2.50;;
75537;SDS011;64121;48.666;8.114;2023-05-07T02:22:24;3.17;;;2.40;;
75537;SDS011;64121;48.666;8.114;2023-05-07T02:24:49;3.63;;;2.65;;
75537;SDS011;64121;48.666;8.114;2023-05-07T02:27:15;3.28;;;2.30;;
75537;SDS011;64121;48.666;8.114;2023-05-07T02:29:40;3.35;;;2.35;;
75537;SDS011;64121;48.666;8.114;2023-05-07T02:32:07;4.65;;;3.40;;
75537;SDS011;64121;48.666;8.114;2023-05-07T02:34:32;2.92;;;2.60;;
75537;SDS011;64121;48.666;8.114;2023-05-07T02:36:57;4.30;;;2.47;;
75537;SDS011;64121;48.666;8.114;2023-05-07T02:39:23;3.08;;;2.78;;
75537;SDS011;64121;48.666;8.114;2023-05-07T02:41:48;3.40;;;2.40;;
75537;SDS011;64121;48.666;8.114;2023-05-07T02:44:13;3.10;;;2.40;;
75537;SDS011;64121;48.666;8.114;2023-05-07T02:46:38;3.38;;;2.58;;
75537;SDS011;64121;48.666;8.114;2023-05-07T02:49:05;3.35;;;2.45;;
75537;SDS011;64121;48.666;8.114;2023-05-07T02:51:30;4.75;;;2.72;;
75537;SDS011;64121;48.666;8.114;2023-05-07T02:53:56;3.15;;;2.40;;
75537;SDS011;64121;48.666;8.114;2023-05-07T02:56:21;4.38;;;2.85;;
75537;SDS011;64121;48.666;8.114;2023-05-07T02:58:47;3.03;;;2.05;;
75537;SDS011;64121;48.666;8.114;2023-05-07T03:01:12;3.35;;;2.35;;
75537;SDS011;64121;48.666;8.114;2023-05-07T03:03:38;4.80;;;3.10;;
75537;SDS011;64121;48.666;8.114;2023-05-07T03:06:04;3.05;;;2.65;;
75537;SDS011;64121;48.666;8.114;2023-05-07T03:08:30;4.07;;;3.10;;
75537;SDS011;64121;48.666;8.114;2023-05-07T03:10:55;3.88;;;3.25;;
75537;SDS011;64121;48.666;8.114;2023-05-07T03:13:21;4.32;;;2.97;;
75537;SDS011;64121;48.666;8.114;2023-05-07T03:15:46;4.15;;;2.90;;
75537;SDS011;64121;48.666;8.114;2023-05-07T03:18:12;3.75;;;3.10;;
75537;SDS011;64121;48.666;8.114;2023-05-07T03:20:37;4.18;;;3.08;;
75537;SDS011;64121;48.666;8.114;2023-05-07T03:23:03;3.65;;;2.92;;
75537;SDS011;64121;48.666;8.114;2023-05-07T03:25:29;5.30;;;3.30;;
75537;SDS011;64121;48.666;8.114;2023-05-07T03:27:54;3.22;;;2.88;;
75537;SDS011;64121;48.666;8.114;2023-05-07T03:30:19;3.90;;;3.35;;
75537;SDS011;64121;48.666;8.114;2023-05-07T03:32:45;3.42;;;3.03;;
75537;SDS011;64121;48.666;8.114;2023-05-07T03:35:10;3.33;;;2.60;;
75537;SDS011;64121;48.666;8.114;2023-05-07T03:37:35;3.28;;;2.70;;
75537;SDS011;64121;48.666;8.114;2023-05-07T03:40:04;3.45;;;2.92;;
75537;SDS011;64121;48.666;8.114;2023-05-07T03:42:31;3.88;;;2.80;;
75537;SDS011;64121;48.666;8.114;2023-05-07T03:44:56;3.65;;;2.70;;
75537;SDS011;64121;48.666;8.114;2023-05-07T03:47:21;2.85;;;2.30;;
75537;SDS011;64121;48.666;8.114;2023-05-07T03:49:47;3.60;;;2.20;;
75537;SDS011;64121;48.666;8.114;2023-05-07T03:52:12;3.30;;;2.28;;
75537;SDS011;64121;48.666;8.114;2023-05-07T03:54:37;3.92;;;2.80;;
75537;SDS011;64121;48.666;8.114;2023-05-07T03:57:04;4.05;;;2.30;;
75537;SDS011;64121;48.666;8.114;2023-05-07T03:59:29;5.60;;;2.60;;
75537;SDS011;64121;48.666;8.114;2023-05-07T04:01:55;2.70;;;2.33;;
75537;SDS011;64121;48.666;8.114;2023-05-07T04:04:20;4.47;;;2.63;;
75537;SDS011;64121;48.666;8.114;2023-05-07T04:06:45;3.15;;;2.33;;
75537;SDS011;64121;48.666;8.114;2023-05-07T04:09:11;2.80;;;2.20;;
75537;SDS011;64121;48.666;8.114;2023-05-07T04:11:36;3.60;;;2.80;;
75537;SDS011;64121;48.666;8.114;2023-05-07T04:14:03;3.25;;;2.70;;
75537;SDS011;64121;48.666;8.114;2023-05-07T04:16:28;3.80;;;2.55;;
75537;SDS011;64121;48.666;8.114;2023-05-07T04:18:53;5.00;;;2.97;;
75537;SDS011;64121;48.666;8.114;2023-05-07T04:21:19;3.67;;;2.78;;
75537;SDS011;64121;48.666;8.114;2023-05-07T04:23:45;3.47;;;3.15;;
75537;SDS011;64121;48.666;8.114;2023-05-07T04:26:11;4.13;;;3.50;;
75537;SDS011;64121;48.666;8.114;2023-05-07T04:28:36;4.47;;;3.15;;
75537;SDS011;64121;48.666;8.114;2023-05-07T04:31:03;3.85;;;3.22;;
75537;SDS011;64121;48.666;8.114;2023-05-07T04:33:28;5.28;;;3.33;;
75537;SDS011;64121;48.666;8.114;2023-05-07T04:35:53;4.43;;;3.42;;
75537;SDS011;64121;48.666;8.114;2023-05-07T04:38:19;3.70;;;3.28;;
75537;SDS011;64121;48.666;8.114;2023-05-07T04:40:44;3.60;;;3.28;;
75537;SDS011;64121;48.666;8.114;2023-05-07T04:43:10;4.47;;;2.70;;
75537;SDS011;64121;48.666;8.114;2023-05-07T04:45:35;3.78;;;3.00;;
75537;SDS011;64121;48.666;8.114;2023-05-07T04:48:02;3.63;;;2.65;;
75537;SDS011;64121;48.666;8.114;2023-05-07T04:50:28;3.50;;;3.03;;
75537;SDS011;64121;48.666;8.114;2023-05-07T04:52:53;4.45;;;3.45;;
75537;SDS011;64121;48.666;8.114;2023-05-07T04:55:18;4.53;;;3.88;;
75537;SDS011;64121;48.666;8.114;2023-05-07T04:57:44;4.13;;;3.72;;
75537;SDS011;64121;48.666;8.114;2023-05-07T05:00:09;5.15;;;4.22;;
75537;SDS011;64121;48.666;8.114;2023-05-07T05:02:35;5.78;;;4.90;;
75537;SDS011;64121;48.666;8.114;2023-05-07T05:05:02;5.45;;;4.50;;
75537;SDS011;64121;48.666;8.114;2023-05-07T05:07:28;6.25;;;4.72;;
75537;SDS011;64121;48.666;8.114;2023-05-07T05:09:53;6.65;;;4.75;;
75537;SDS011;64121;48.666;8.114;2023-05-07T05:12:18;5.93;;;5.00;;
75537;SDS011;64121;48.666;8.114;2023-05-07T05:14:44;4.88;;;4.35;;
75537;SDS011;64121;48.666;8.114;2023-05-07T05:17:09;5.10;;;4.38;;
75537;SDS011;64121;48.666;8.114;2023-05-07T05:19:34;6.20;;;4.57;;
75537;SDS011;64121;48.666;8.114;2023-05-07T05:22:01;5.75;;;4.70;;
75537;SDS011;64121;48.666;8.114;2023-05-07T05:24:26;7.03;;;4.95;;
75537;SDS011;64121;48.666;8.114;2023-05-07T05:26:52;6.70;;;4.55;;
75537;SDS011;64121;48.666;8.114;2023-05-07T05:29:18;7.72;;;4.85;;
75537;SDS011;64121;48.666;8.114;2023-05-07T05:31:43;6.57;;;4.78;;
75537;SDS011;64121;48.666;8.114;2023-05-07T05:34:08;5.82;;;5.22;;
75537;SDS011;64121;48.666;8.114;2023-05-07T05:36:34;7.00;;;6.03;;
75537;SDS011;64121;48.666;8.114;2023-05-07T05:39:00;6.60;;;5.85;;
75537;SDS011;64121;48.666;8.114;2023-05-07T05:41:26;7.68;;;5.85;;
75537;SDS011;64121;48.666;8.114;2023-05-07T05:43:51;7.28;;;5.40;;
75537;SDS011;64121;48.666;8.114;2023-05-07T05:46:16;6.53;;;5.40;;
75537;SDS011;64121;48.666;8.114;2023-05-07T05:48:42;6.90;;;5.88;;
75537;SDS011;64121;48.666;8.114;2023-05-07T05:51:07;8.57;;;6.25;;
75537;SDS011;64121;48.666;8.114;2023-05-07T05:53:32;11.15;;;5.45;;
75537;SDS011;64121;48.666;8.114;2023-05-07T05:55:59;8.18;;;5.82;;
75537;SDS011;64121;48.666;8.114;2023-05-07T05:58:24;6.20;;;5.70;;
75537;SDS011;64121;48.666;8.114;2023-05-07T06:00:50;6.57;;;5.85;;
75537;SDS011;64121;48.666;8.114;2023-05-07T06:03:15;6.78;;;6.07;;
75537;SDS011;64121;48.666;8.114;2023-05-07T06:05:41;7.35;;;6.55;;
75537;SDS011;64121;48.666;8.114;2023-05-07T06:08:06;6.43;;;5.72;;
75537;SDS011;64121;48.666;8.114;2023-05-07T06:10:31;6.57;;;5.80;;
75537;SDS011;64121;48.666;8.114;2023-05-07T06:12:58;7.43;;;5.68;;
75537;SDS011;64121;48.666;8.114;2023-05-07T06:15:23;10.05;;;6.97;;
75537;SDS011;64121;48.666;8.114;2023-05-07T06:17:49;7.43;;;5.65;;
75537;SDS011;64121;48.666;8.114;2023-05-07T06:20:14;6.63;;;5.88;;
75537;SDS011;64121;48.666;8.114;2023-05-07T06:22:39;5.68;;;5.07;;
75537;SDS011;64121;48.666;8.114;2023-05-07T06:25:05;5.65;;;4.88;;
75537;SDS011;64121;48.666;8.114;2023-05-07T06:27:31;6.88;;;5.63;;
75537;SDS011;64121;48.666;8.114;2023-05-07T06:29:58;6.28;;;5.47;;
75537;SDS011;64121;48.666;8.114;2023-05-07T06:32:23;6.18;;;5.00;;
75537;SDS011;64121;48.666;8.114;2023-05-07T06:34:49;6.72;;;5.25;;
75537;SDS011;64121;48.666;8.114;2023-05-07T06:37:14;6.70;;;5.50;;
75537;SDS011;64121;48.666;8.114;2023-05-07T06:39:39;8.30;;;5.30;;
75537;SDS011;64121;48.666;8.114;2023-05-07T06:42:05;6.80;;;5.45;;
75537;SDS011;64121;48.666;8.114;2023-05-07T06:44:30;6.35;;;5.25;;
75537;SDS011;64121;48.666;8.114;2023-05-07T06:46:57;6.40;;;5.80;;
75537;SDS011;64121;48.666;8.114;2023-05-07T06:49:22;5.95;;;5.38;;
75537;SDS011;64121;48.666;8.114;2023-05-07T06:51:47;7.35;;;5.22;;
75537;SDS011;64121;48.666;8.114;2023-05-07T06:54:13;5.45;;;4.78;;
75537;SDS011;64121;48.666;8.114;2023-05-07T06:56:38;6.50;;;5.07;;
75537;SDS011;64121;48.666;8.114;2023-05-07T06:59:03;7.22;;;5.10;;
75537;SDS011;64121;48.666;8.114;2023-05-07T07:01:29;6.53;;;5.60;;
75537;SDS011;64121;48.666;8.114;2023-05-07T07:03:55;6.05;;;4.60;;
75537;SDS011;64121;48.666;8.114;2023-05-07T07:06:21;6.35;;;5.47;;
75537;SDS011;64121;48.666;8.114;2023-05-07T07:08:46;6.03;;;5.38;;
75537;SDS011;64121;48.666;8.114;2023-05-07T07:11:11;7.93;;;5.28;;
75537;SDS011;64121;48.666;8.114;2023-05-07T07:13:37;6.43;;;5.75;;
75537;SDS011;64121;48.666;8.114;2023-05-07T07:16:02;6.10;;;5.40;;
75537;SDS011;64121;48.666;8.114;2023-05-07T07:18:28;7.35;;;5.10;;
75537;SDS011;64121;48.666;8.114;2023-05-07T07:20:55;5.47;;;4.90;;
75537;SDS011;64121;48.666;8.114;2023-05-07T07:23:20;5.70;;;5.00;;
75537;SDS011;64121;48.666;8.114;2023-05-07T07:25:47;6.00;;;5.40;;
75537;SDS011;64121;48.666;8.114;2023-05-07T07:28:12;5.38;;;4.70;;
75537;SDS011;64121;48.666;8.114;2023-05-07T07:30:38;5.97;;;4.55;;
75537;SDS011;64121;48.666;8.114;2023-05-07T07:33:03;5.07;;;4.57;;
75537;SDS011;64121;48.666;8.114;2023-05-07T07:35:29;6.03;;;4.50;;
75537;SDS011;64121;48.666;8.114;2023-05-07T07:37:55;4.85;;;4.28;;
75537;SDS011;64121;48.666;8.114;2023-05-07T07:40:21;5.25;;;4.20;;
75537;SDS011;64121;48.666;8.114;2023-05-07T07:42:46;5.55;;;4.10;;
75537;SDS011;64121;48.666;8.114;2023-05-07T07:45:12;6.22;;;4.05;;
75537;SDS011;64121;48.666;8.114;2023-05-07T07:47:37;4.72;;;4.10;;
75537;SDS011;64121;48.666;8.114;2023-05-07T07:50:03;4.40;;;4.00;;
75537;SDS011;64121;48.666;8.114;2023-05-07T07:52:29;5.57;;;4.43;;
75537;SDS011;64121;48.666;8.114;2023-05-07T07:54:56;5.10;;;3.80;;
75537;SDS011;64121;48.666;8.114;2023-05-07T07:57:21;5.97;;;4.20;;
75537;SDS011;64121;48.666;8.114;2023-05-07T07:59:47;5.38;;;4.32;;
75537;SDS011;64121;48.666;8.114;2023-05-07T08:02:12;3.50;;;3.20;;
75537;SDS011;64121;48.666;8.114;2023-05-07T08:04:38;4.80;;;4.28;;
75537;SDS011;64121;48.666;8.114;2023-05-07T08:07:03;5.35;;;3.42;;
75537;SDS011;64121;48.666;8.114;2023-05-07T08:09:28;6.82;;;3.97;;
75537;SDS011;64121;48.666;8.114;2023-05-07T08:11:55;4.18;;;3.45;;
75537;SDS011;64121;48.666;8.114;2023-05-07T08:14:21;4.25;;;3.83;;
75537;SDS011;64121;48.666;8.114;2023-05-07T08:16:46;5.28;;;3.90;;
75537;SDS011;64121;48.666;8.114;2023-05-07T08:19:11;5.20;;;4.03;;
75537;SDS011;64121;48.666;8.114;2023-05-07T08:21:38;6.38;;;4.00;;
75537;SDS011;64121;48.666;8.114;2023-05-07T08:24:04;4.45;;;3.35;;
75537;SDS011;64121;48.666;8.114;2023-05-07T08:26:30;4.38;;;3.95;;
75537;SDS011;64121;48.666;8.114;2023-05-07T08:28:57;5.18;;;3.60;;
75537;SDS011;64121;48.666;8.114;2023-05-07T08:31:22;5.35;;;4.35;;
75537;SDS011;64121;48.666;8.114;2023-05-07T08:33:47;5.68;;;4.03;;
75537;SDS011;64121;48.666;8.114;2023-05-07T08:36:13;5.63;;;3.88;;
75537;SDS011;64121;48.666;8.114;2023-05-07T08:38:38;4.72;;;3.90;;
75537;SDS011;64121;48.666;8.114;2023-05-07T08:41:03;4.38;;;3.53;;
75537;SDS011;64121;48.666;8.114;2023-05-07T08:43:29;5.40;;;4.35;;
75537;SDS011;64121;48.666;8.114;2023-05-07T08:45:59;5.63;;;5.05;;
75537;SDS011;64121;48.666;8.114;2023-05-07T08:48:26;5.80;;;5.20;;
75537;SDS011;64121;48.666;8.114;2023-05-07T08:50:54;6.60;;;4.88;;
75537;SDS011;64121;48.666;8.114;2023-05-07T08:53:19;5.10;;;4.38;;
75537;SDS011;64121;48.666;8.114;2023-05-07T08:55:45;6.50;;;5.78;;
75537;SDS011;64121;48.666;8.114;2023-05-07T08:58:11;6.72;;;5.22;;
75537;SDS011;64121;48.666;8.114;2023-05-07T09:00:36;6.15;;;5.13;;
75537;SDS011;64121;48.666;8.114;2023-05-07T09:03:05;5.03;;;4.57;;
75537;SDS011;64121;48.666;8.114;2023-05-07T09:05:30;5.80;;;5.20;;
75537;SDS011;64121;48.666;8.114;2023-05-07T09:07:58;6.45;;;5.00;;
75537;SDS011;64121;48.666;8.114;2023-05-07T09:10:24;8.50;;;4.80;;
75537;SDS011;64121;48.666;8.114;2023-05-07T09:12:50;6.50;;;4.80;;
75537;SDS011;64121;48.666;8.114;2023-05-07T09:15:16;5.95;;;5.35;;
75537;SDS011;64121;48.666;8.114;2023-05-07T09:17:41;5.53;;;4.68;;
75537;SDS011;64121;48.666;8.114;2023-05-07T09:20:09;4.88;;;4.47;;
75537;SDS011;64121;48.666;8.114;2023-05-07T09:22:36;5.63;;;4.95;;
75537;SDS011;64121;48.666;8.114;2023-05-07T09:25:02;6.50;;;4.90;;
75537;SDS011;64121;48.666;8.114;2023-05-07T09:27:27;5.68;;;4.70;;
75537;SDS011;64121;48.666;8.114;2023-05-07T09:29:53;6.97;;;5.22;;
75537;SDS011;64121;48.666;8.114;2023-05-07T09:32:18;5.68;;;4.35;;
75537;SDS011;64121;48.666;8.114;2023-05-07T09:34:43;5.25;;;4.75;;
75537;SDS011;64121;48.666;8.114;2023-05-07T09:37:11;6.35;;;4.72;;
75537;SDS011;64121;48.666;8.114;2023-05-07T09:39:41;5.95;;;5.35;;
75537;SDS011;64121;48.666;8.114;2023-05-07T09:42:07;5.72;;;5.13;;
75537;SDS011;64121;48.666;8.114;2023-05-07T09:44:32;7.05;;;5.15;;
75537;SDS011;64121;48.666;8.114;2023-05-07T09:46:59;6.22;;;5.63;;
75537;SDS011;64121;48.666;8.114;2023-05-07T09:49:25;7.53;;;5.53;;
75537;SDS011;64121;48.666;8.114;2023-05-07T09:51:54;6.35;;;5.72;;
75537;SDS011;64121;48.666;8.114;2023-05-07T09:54:22;6.85;;;6.07;;
75537;SDS011;64121;48.666;8.114;2023-05-07T09:56:48;7.28;;;5.45;;
75537;SDS011;64121;48.666;8.114;2023-05-07T09:59:14;7.35;;;5.63;;
75537;SDS011;64121;48.666;8.114;2023-05-07T10:01:42;6.95;;;6.25;;
75537;SDS011;64121;48.666;8.114;2023-05-07T10:04:08;6.63;;;5.72;;
75537;SDS011;64121;48.666;8.114;2023-05-07T10:06:34;8.43;;;5.85;;
75537;SDS011;64121;48.666;8.114;2023-05-07T10:09:00;6.38;;;5.78;;
75537;SDS011;64121;48.666;8.114;2023-05-07T10:11:27;6.22;;;5.43;;
75537;SDS011;64121;48.666;8.114;2023-05-07T10:13:53;8.13;;;6.00;;
75537;SDS011;64121;48.666;8.114;2023-05-07T10:16:18;6.78;;;6.07;;
75537;SDS011;64121;48.666;8.114;2023-05-07T10:18:44;8.38;;;6.22;;
75537;SDS011;64121;48.666;8.114;2023-05-07T10:21:11;9.00;;;8.10;;
75537;SDS011;64121;48.666;8.114;2023-05-07T10:23:42;6.72;;;5.00;;
75537;SDS011;64121;48.666;8.114;2023-05-07T10:26:10;6.28;;;5.63;;
75537;SDS011;64121;48.666;8.114;2023-05-07T10:28:39;8.13;;;6.78;;
75537;SDS011;64121;48.666;8.114;2023-05-07T10:31:08;6.28;;;5.68;;
75537;SDS011;64121;48.666;8.114;2023-05-07T10:33:43;6.22;;;5.63;;
75537;SDS011;64121;48.666;8.114;2023-05-07T10:36:11;5.95;;;5.45;;
75537;SDS011;64121;48.666;8.114;2023-05-07T10:38:37;6.97;;;5.65;;
75537;SDS011;64121;48.666;8.114;2023-05-07T10:41:03;5.80;;;5.25;;
75537;SDS011;64121;48.666;8.114;2023-05-07T10:43:39;7.20;;;5.20;;
75537;SDS011;64121;48.666;8.114;2023-05-07T10:46:09;6.85;;;5.30;;
75537;SDS011;64121;48.666;8.114;2023-05-07T10:48:38;6.95;;;6.25;;
75537;SDS011;64121;48.666;8.114;2023-05-07T10:51:33;7.18;;;6.47;;
75537;SDS011;64121;48.666;8.114;2023-05-07T10:54:18;8.70;;;7.80;;
75537;SDS011;64121;48.666;8.114;2023-05-07T10:56:47;8.02;;;7.22;;
75537;SDS011;64121;48.666;8.114;2023-05-07T10:59:32;8.25;;;7.35;;
75537;SDS011;64121;48.666;8.114;2023-05-07T11:01:59;7.95;;;7.15;;
75537;SDS011;64121;48.666;8.114;2023-05-07T11:04:25;8.70;;;7.65;;
75537;SDS011;64121;48.666;8.114;2023-05-07T11:07:09;6.15;;;5.60;;
75537;SDS011;64121;48.666;8.114;2023-05-07T11:09:58;6.80;;;4.95;;
75537;SDS011;64121;48.666;8.114;2023-05-07T11:12:47;6.15;;;5.57;;
75537;SDS011;64121;48.666;8.114;2023-05-07T11:15:14;6.43;;;5.50;;
75537;SDS011;64121;48.666;8.114;2023-05-07T11:17:58;8.90;;;6.28;;
75537;SDS011;64121;48.666;8.114;2023-05-07T11:26:22;7.10;;;5.15;;
75537;SDS011;64121;48.666;8.114;2023-05-07T11:28:48;6.28;;;5.68;;
75537;SDS011;64121;48.666;8.114;2023-05-07T11:31:15;7.40;;;6.03;;
75537;SDS011;64121;48.666;8.114;2023-05-07T11:33:46;7.13;;;5.30;;
75537;SDS011;64121;48.666;8.114;2023-05-07T11:36:11;5.00;;;4.50;;
75537;SDS011;64121;48.666;8.114;2023-05-07T11:38:37;5.13;;;4.63;;
75537;SDS011;64121;48.666;8.114;2023-05-07T11:41:03;5.30;;;4.57;;
75537;SDS011;64121;48.666;8.114;2023-05-07T11:43:29;5.85;;;5.25;;
75537;SDS011;64121;48.666;8.114;2023-05-07T11:45:54;6.53;;;5.68;;
75537;SDS011;64121;48.666;8.114;2023-05-07T11:48:21;4.30;;;3.90;;
75537;SDS011;64121;48.666;8.114;2023-05-07T11:50:50;3.42;;;3.08;;
75537;SDS011;64121;48.666;8.114;2023-05-07T11:53:16;4.18;;;3.08;;
75537;SDS011;64121;48.666;8.114;2023-05-07T11:55:41;3.97;;;3.10;;
75537;SDS011;64121;48.666;8.114;2023-05-07T11:58:07;5.28;;;3.08;;
75537;SDS011;64121;48.666;8.114;2023-05-07T12:00:35;3.60;;;2.75;;
75537;SDS011;64121;48.666;8.114;2023-05-07T12:03:02;3.60;;;3.10;;
75537;SDS011;64121;48.666;8.114;2023-05-07T12:05:30;4.00;;;2.50;;
75537;SDS011;64121;48.666;8.114;2023-05-07T12:07:55;4.22;;;2.78;;
75537;SDS011;64121;48.666;8.114;2023-05-07T12:10:21;3.90;;;2.88;;
75537;SDS011;64121;48.666;8.114;2023-05-07T12:12:46;5.18;;;2.70;;
75537;SDS011;64121;48.666;8.114;2023-05-07T12:15:15;3.92;;;2.83;;
75537;SDS011;64121;48.666;8.114;2023-05-07T12:17:41;5.70;;;3.92;;
75537;SDS011;64121;48.666;8.114;2023-05-07T12:20:07;4.95;;;3.80;;
75537;SDS011;64121;48.666;8.114;2023-05-07T12:22:34;7.25;;;4.97;;
75537;SDS011;64121;48.666;8.114;2023-05-07T12:25:00;5.25;;;4.53;;
75537;SDS011;64121;48.666;8.114;2023-05-07T12:27:25;7.18;;;4.30;;
75537;SDS011;64121;48.666;8.114;2023-05-07T12:29:51;5.47;;;4.50;;
75537;SDS011;64121;48.666;8.114;2023-05-07T12:32:17;6.15;;;5.10;;
75537;SDS011;64121;48.666;8.114;2023-05-07T12:34:44;6.95;;;4.80;;
75537;SDS011;64121;48.666;8.114;2023-05-07T12:37:10;4.20;;;3.47;;
75537;SDS011;64121;48.666;8.114;2023-05-07T12:39:37;3.80;;;3.28;;
75537;SDS011;64121;48.666;8.114;2023-05-07T12:42:02;5.82;;;5.05;;
75537;SDS011;64121;48.666;8.114;2023-05-07T12:44:28;4.55;;;3.42;;
75537;SDS011;64121;48.666;8.114;2023-05-07T12:46:55;3.67;;;3.20;;
75537;SDS011;64121;48.666;8.114;2023-05-07T12:49:20;5.40;;;3.90;;
75537;SDS011;64121;48.666;8.114;2023-05-07T12:51:46;4.18;;;2.97;;
75537;SDS011;64121;48.666;8.114;2023-05-07T12:54:12;6.43;;;4.25;;
75537;SDS011;64121;48.666;8.114;2023-05-07T12:56:39;4.32;;;3.53;;
75537;SDS011;64121;48.666;8.114;2023-05-07T12:59:04;3.95;;;3.17;;
75537;SDS011;64121;48.666;8.114;2023-05-07T13:01:30;3.53;;;3.22;;
75537;SDS011;64121;48.666;8.114;2023-05-07T13:03:57;5.63;;;3.35;;
75537;SDS011;64121;48.666;8.114;2023-05-07T13:06:25;4.60;;;3.08;;
75537;SDS011;64121;48.666;8.114;2023-05-07T13:08:51;3.35;;;2.42;;
75537;SDS011;64121;48.666;8.114;2023-05-07T13:11:16;3.53;;;2.60;;
75537;SDS011;64121;48.666;8.114;2023-05-07T13:13:43;6.47;;;2.47;;
75537;SDS011;64121;48.666;8.114;2023-05-07T13:16:09;3.00;;;2.38;;
75537;SDS011;64121;48.666;8.114;2023-05-07T13:18:35;7.38;;;2.47;;
75537;SDS011;64121;48.666;8.114;2023-05-07T13:21:01;4.20;;;3.22;;
75537;SDS011;64121;48.666;8.114;2023-05-07T13:23:26;4.28;;;2.28;;
75537;SDS011;64121;48.666;8.114;2023-05-07T13:25:52;3.03;;;2.63;;
75537;SDS011;64121;48.666;8.114;2023-05-07T13:28:17;3.58;;;2.83;;
75537;SDS011;64121;48.666;8.114;2023-05-07T13:30:44;5.07;;;2.47;;
75537;SDS011;64121;48.666;8.114;2023-05-07T13:33:09;3.67;;;2.55;;
75537;SDS011;64121;48.666;8.114;2023-05-07T13:35:35;3.47;;;3.05;;
75537;SDS011;64121;48.666;8.114;2023-05-07T13:38:00;5.38;;;3.45;;
75537;SDS011;64121;48.666;8.114;2023-05-07T13:40:26;4.85;;;3.05;;
75537;SDS011;64121;48.666;8.114;2023-05-07T13:42:51;4.75;;;3.15;;
75537;SDS011;64121;48.666;8.114;2023-05-07T13:45:17;3.90;;;2.90;;
75537;SDS011;64121;48.666;8.114;2023-05-07T13:47:44;6.50;;;3.55;;
75537;SDS011;64121;48.666;8.114;2023-05-07T13:50:10;4.43;;;3.65;;
75537;SDS011;64121;48.666;8.114;2023-05-07T13:52:36;4.40;;;3.47;;
75537;SDS011;64121;48.666;8.114;2023-05-07T13:55:01;5.35;;;3.80;;
75537;SDS011;64121;48.666;8.114;2023-05-07T13:57:27;4.63;;;3.60;;
75537;SDS011;64121;48.666;8.114;2023-05-07T13:59:52;6.68;;;3.95;;
75537;SDS011;64121;48.666;8.114;2023-05-07T14:02:17;6.57;;;3.83;;
75537;SDS011;64121;48.666;8.114;2023-05-07T14:04:44;5.50;;;4.45;;
75537;SDS011;64121;48.666;8.114;2023-05-07T14:07:09;4.15;;;3.72;;
75537;SDS011;64121;48.666;8.114;2023-05-07T14:09:35;4.65;;;3.72;;
75537;SDS011;64121;48.666;8.114;2023-05-07T14:12:00;4.90;;;3.60;;
75537;SDS011;64121;48.666;8.114;2023-05-07T14:14:25;6.60;;;4.65;;
75537;SDS011;64121;48.666;8.114;2023-05-07T14:16:51;4.82;;;4.10;;
75537;SDS011;64121;48.666;8.114;2023-05-07T14:19:16;4.93;;;4.40;;
75537;SDS011;64121;48.666;8.114;2023-05-07T14:21:43;7.30;;;5.10;;
75537;SDS011;64121;48.666;8.114;2023-05-07T14:24:08;6.35;;;4.40;;
75537;SDS011;64121;48.666;8.114;2023-05-07T14:26:33;4.85;;;4.07;;
75537;SDS011;64121;48.666;8.114;2023-05-07T14:28:59;5.88;;;4.47;;
75537;SDS011;64121;48.666;8.114;2023-05-07T14:31:24;4.47;;;3.85;;
75537;SDS011;64121;48.666;8.114;2023-05-07T14:33:50;5.47;;;4.07;;
75537;SDS011;64121;48.666;8.114;2023-05-07T14:36:15;6.97;;;5.00;;
75537;SDS011;64121;48.666;8.114;2023-05-07T14:38:42;6.47;;;4.80;;
75537;SDS011;64121;48.666;8.114;2023-05-07T14:41:07;7.20;;;4.95;;
75537;SDS011;64121;48.666;8.114;2023-05-07T14:43:32;5.40;;;4.78;;
75537;SDS011;64121;48.666;8.114;2023-05-07T14:45:58;6.35;;;5.75;;
75537;SDS011;64121;48.666;8.114;2023-05-07T14:48:23;7.43;;;5.75;;